sensor_id;sensor_type;location;lat;lon;timestamp;P1;durP1;ratioP1;P2;durP2;ratioP2
4577;SDS011;2301;47.354;8.528;2023-02-01T00:00:32;7.95;;;4.45;;
4577;SDS011;2301;47.354;8.528;2023-02-01T00:02:59;6.20;;;4.72;;
4577;SDS011;2301;47.354;8.528;2023-02-01T00:05:27;5.90;;;4.32;;
4577;SDS011;2301;47.354;8.528;2023-02-01T00:07:55;6.88;;;4.50;;
4577;SDS011;2301;47.354;8.528;2023-02-01T00:10:22;5.35;;;3.70;;
4577;SDS011;2301;47.354;8.528;2023-02-01T00:12:49;6.95;;;3.78;;
4577;SDS011;2301;47.354;8.528;2023-02-01T00:15:17;7.53;;;5.22;;
4577;SDS011;2301;47.354;8.528;2023-02-01T00:17:51;7.93;;;5.20;;
4577;SDS011;2301;47.354;8.528;2023-02-01T00:20:22;8.65;;;5.03;;
4577;SDS011;2301;47.354;8.528;2023-02-01T00:22:52;7.18;;;4.47;;
4577;SDS011;2301;47.354;8.528;2023-02-01T00:25:21;7.15;;;4.93;;
4577;SDS011;2301;47.354;8.528;2023-02-01T00:27:48;7.38;;;3.97;;
4577;SDS011;2301;47.354;8.528;2023-02-01T00:30:16;8.40;;;4.70;;
4577;SDS011;2301;47.354;8.528;2023-02-01T00:32:43;5.20;;;4.30;;
4577;SDS011;2301;47.354;8.528;2023-02-01T00:35:10;8.77;;;5.07;;
4577;SDS011;2301;47.354;8.528;2023-02-01T00:37:37;5.28;;;3.65;;
4577;SDS011;2301;47.354;8.528;2023-02-01T00:40:05;5.88;;;4.60;;
4577;SDS011;2301;47.354;8.528;2023-02-01T00:42:34;8.15;;;4.32;;
4577;SDS011;2301;47.354;8.528;2023-02-01T00:45:01;7.70;;;4.97;;
4577;SDS011;2301;47.354;8.528;2023-02-01T00:47:28;6.78;;;4.55;;
4577;SDS011;2301;47.354;8.528;2023-02-01T00:49:55;9.02;;;4.60;;
4577;SDS011;2301;47.354;8.528;2023-02-01T00:52:22;6.28;;;4.10;;
4577;SDS011;2301;47.354;8.528;2023-02-01T00:54:50;6.25;;;4.20;;
4577;SDS011;2301;47.354;8.528;2023-02-01T00:57:16;8.70;;;4.57;;
4577;SDS011;2301;47.354;8.528;2023-02-01T00:59:45;6.75;;;4.18;;
4577;SDS011;2301;47.354;8.528;2023-02-01T01:02:12;8.38;;;4.57;;
4577;SDS011;2301;47.354;8.528;2023-02-01T01:04:39;13.05;;;3.88;;
4577;SDS011;2301;47.354;8.528;2023-02-01T01:07:06;5.60;;;4.10;;
4577;SDS011;2301;47.354;8.528;2023-02-01T01:09:34;7.35;;;5.60;;
4577;SDS011;2301;47.354;8.528;2023-02-01T01:12:01;5.70;;;4.68;;
4577;SDS011;2301;47.354;8.528;2023-02-01T01:14:28;7.00;;;4.28;;
4577;SDS011;2301;47.354;8.528;2023-02-01T01:16:57;9.18;;;4.97;;
4577;SDS011;2301;47.354;8.528;2023-02-01T01:19:24;10.38;;;5.20;;
4577;SDS011;2301;47.354;8.528;2023-02-01T01:21:51;7.88;;;4.28;;
4577;SDS011;2301;47.354;8.528;2023-02-01T01:24:18;10.18;;;4.00;;
4577;SDS011;2301;47.354;8.528;2023-02-01T01:26:45;9.15;;;4.25;;
4577;SDS011;2301;47.354;8.528;2023-02-01T01:29:12;7.65;;;5.07;;
4577;SDS011;2301;47.354;8.528;2023-02-01T01:31:39;8.50;;;5.03;;
4577;SDS011;2301;47.354;8.528;2023-02-01T01:34:07;10.35;;;4.22;;
4577;SDS011;2301;47.354;8.528;2023-02-01T01:36:35;9.90;;;4.55;;
4577;SDS011;2301;47.354;8.528;2023-02-01T01:39:02;7.22;;;4.47;;
4577;SDS011;2301;47.354;8.528;2023-02-01T01:41:30;21.35;;;5.05;;
4577;SDS011;2301;47.354;8.528;2023-02-01T01:43:59;7.50;;;4.78;;
4577;SDS011;2301;47.354;8.528;2023-02-01T01:46:29;9.38;;;4.63;;
4577;SDS011;2301;47.354;8.528;2023-02-01T01:49:00;6.85;;;4.15;;
4577;SDS011;2301;47.354;8.528;2023-02-01T01:51:34;10.48;;;4.50;;
4577;SDS011;2301;47.354;8.528;2023-02-01T01:54:06;6.68;;;3.90;;
4577;SDS011;2301;47.354;8.528;2023-02-01T01:56:37;5.75;;;3.90;;
4577;SDS011;2301;47.354;8.528;2023-02-01T01:59:06;8.70;;;4.05;;
4577;SDS011;2301;47.354;8.528;2023-02-01T02:01:34;7.55;;;4.03;;
4577;SDS011;2301;47.354;8.528;2023-02-01T02:04:01;10.77;;;4.30;;
4577;SDS011;2301;47.354;8.528;2023-02-01T02:06:36;6.40;;;4.32;;
4577;SDS011;2301;47.354;8.528;2023-02-01T02:09:06;6.32;;;4.80;;
4577;SDS011;2301;47.354;8.528;2023-02-01T02:11:34;7.30;;;3.63;;
4577;SDS011;2301;47.354;8.528;2023-02-01T02:14:01;5.78;;;3.95;;
4577;SDS011;2301;47.354;8.528;2023-02-01T02:25:32;6.53;;;4.05;;
4577;SDS011;2301;47.354;8.528;2023-02-01T02:28:19;7.22;;;3.60;;
4577;SDS011;2301;47.354;8.528;2023-02-01T02:31:23;14.70;;;4.55;;
4577;SDS011;2301;47.354;8.528;2023-02-01T02:34:10;8.23;;;4.50;;
4577;SDS011;2301;47.354;8.528;2023-02-01T02:36:48;8.82;;;4.03;;
4577;SDS011;2301;47.354;8.528;2023-02-01T02:39:29;6.25;;;3.40;;
4577;SDS011;2301;47.354;8.528;2023-02-01T02:42:03;11.10;;;3.97;;
4577;SDS011;2301;47.354;8.528;2023-02-01T02:44:57;6.25;;;3.83;;
4577;SDS011;2301;47.354;8.528;2023-02-01T02:47:46;7.57;;;4.40;;
4577;SDS011;2301;47.354;8.528;2023-02-01T02:50:23;8.30;;;4.00;;
4577;SDS011;2301;47.354;8.528;2023-02-01T02:53:12;6.00;;;3.83;;
4577;SDS011;2301;47.354;8.528;2023-02-01T02:55:59;4.93;;;3.53;;
4577;SDS011;2301;47.354;8.528;2023-02-01T02:58:47;7.75;;;4.30;;
4577;SDS011;2301;47.354;8.528;2023-02-01T03:01:32;16.90;;;4.30;;
4577;SDS011;2301;47.354;8.528;2023-02-01T03:04:16;6.30;;;4.03;;
4577;SDS011;2301;47.354;8.528;2023-02-01T03:06:46;7.60;;;4.07;;
4577;SDS011;2301;47.354;8.528;2023-02-01T03:09:14;6.40;;;3.72;;
4577;SDS011;2301;47.354;8.528;2023-02-01T03:11:46;5.80;;;4.30;;
4577;SDS011;2301;47.354;8.528;2023-02-01T03:14:36;9.38;;;3.65;;
4577;SDS011;2301;47.354;8.528;2023-02-01T03:17:08;5.38;;;3.78;;
4577;SDS011;2301;47.354;8.528;2023-02-01T03:19:39;5.38;;;3.65;;
4577;SDS011;2301;47.354;8.528;2023-02-01T03:22:15;5.90;;;4.32;;
4577;SDS011;2301;47.354;8.528;2023-02-01T03:24:48;8.75;;;3.80;;
4577;SDS011;2301;47.354;8.528;2023-02-01T03:27:18;5.70;;;3.53;;
4577;SDS011;2301;47.354;8.528;2023-02-01T03:29:49;5.55;;;3.60;;
4577;SDS011;2301;47.354;8.528;2023-02-01T03:32:20;6.15;;;4.35;;
4577;SDS011;2301;47.354;8.528;2023-02-01T03:34:48;7.47;;;4.85;;
4577;SDS011;2301;47.354;8.528;2023-02-01T03:37:21;6.55;;;4.13;;
4577;SDS011;2301;47.354;8.528;2023-02-01T03:39:56;11.02;;;4.70;;
4577;SDS011;2301;47.354;8.528;2023-02-01T03:42:27;7.95;;;4.10;;
4577;SDS011;2301;47.354;8.528;2023-02-01T03:45:00;7.32;;;3.97;;
4577;SDS011;2301;47.354;8.528;2023-02-01T03:47:33;4.95;;;3.60;;
4577;SDS011;2301;47.354;8.528;2023-02-01T03:50:04;6.55;;;3.80;;
4577;SDS011;2301;47.354;8.528;2023-02-01T03:52:36;7.07;;;4.20;;
4577;SDS011;2301;47.354;8.528;2023-02-01T03:55:07;10.75;;;4.50;;
4577;SDS011;2301;47.354;8.528;2023-02-01T03:57:35;8.95;;;3.30;;
4577;SDS011;2301;47.354;8.528;2023-02-01T04:00:08;6.60;;;4.97;;
4577;SDS011;2301;47.354;8.528;2023-02-01T04:02:41;4.93;;;3.67;;
4577;SDS011;2301;47.354;8.528;2023-02-01T04:05:08;7.72;;;4.03;;
4577;SDS011;2301;47.354;8.528;2023-02-01T04:07:37;5.85;;;4.00;;
4577;SDS011;2301;47.354;8.528;2023-02-01T04:10:05;5.57;;;3.75;;
4577;SDS011;2301;47.354;8.528;2023-02-01T04:12:32;12.88;;;4.50;;
4577;SDS011;2301;47.354;8.528;2023-02-01T04:14:59;7.28;;;3.75;;
4577;SDS011;2301;47.354;8.528;2023-02-01T04:17:26;8.10;;;3.45;;
4577;SDS011;2301;47.354;8.528;2023-02-01T04:19:53;5.68;;;4.30;;
4577;SDS011;2301;47.354;8.528;2023-02-01T04:22:20;7.10;;;3.70;;
4577;SDS011;2301;47.354;8.528;2023-02-01T04:24:49;8.25;;;3.85;;
4577;SDS011;2301;47.354;8.528;2023-02-01T04:27:16;7.93;;;4.25;;
4577;SDS011;2301;47.354;8.528;2023-02-01T04:29:43;6.43;;;3.70;;
4577;SDS011;2301;47.354;8.528;2023-02-01T04:32:10;6.40;;;4.60;;
4577;SDS011;2301;47.354;8.528;2023-02-01T04:34:38;11.55;;;3.88;;
4577;SDS011;2301;47.354;8.528;2023-02-01T04:37:05;7.85;;;4.30;;
4577;SDS011;2301;47.354;8.528;2023-02-01T04:39:32;5.90;;;4.00;;
4577;SDS011;2301;47.354;8.528;2023-02-01T04:42:00;7.80;;;4.03;;
4577;SDS011;2301;47.354;8.528;2023-02-01T04:44:27;5.22;;;3.50;;
4577;SDS011;2301;47.354;8.528;2023-02-01T04:46:54;9.13;;;4.68;;
4577;SDS011;2301;47.354;8.528;2023-02-01T04:49:21;6.60;;;3.55;;
4577;SDS011;2301;47.354;8.528;2023-02-01T04:51:50;7.43;;;4.40;;
4577;SDS011;2301;47.354;8.528;2023-02-01T04:54:17;7.47;;;4.68;;
4577;SDS011;2301;47.354;8.528;2023-02-01T04:56:44;9.18;;;4.45;;
4577;SDS011;2301;47.354;8.528;2023-02-01T04:59:13;12.23;;;4.03;;
4577;SDS011;2301;47.354;8.528;2023-02-01T05:01:40;7.70;;;4.30;;
4577;SDS011;2301;47.354;8.528;2023-02-01T05:04:07;6.78;;;4.60;;
4577;SDS011;2301;47.354;8.528;2023-02-01T05:06:34;7.20;;;4.40;;
4577;SDS011;2301;47.354;8.528;2023-02-01T05:09:01;6.35;;;4.63;;
4577;SDS011;2301;47.354;8.528;2023-02-01T05:11:28;7.00;;;4.53;;
4577;SDS011;2301;47.354;8.528;2023-02-01T05:14:14;6.55;;;4.03;;
4577;SDS011;2301;47.354;8.528;2023-02-01T05:16:41;6.50;;;4.68;;
4577;SDS011;2301;47.354;8.528;2023-02-01T05:19:08;6.95;;;4.22;;
4577;SDS011;2301;47.354;8.528;2023-02-01T05:21:35;8.45;;;4.93;;
4577;SDS011;2301;47.354;8.528;2023-02-01T05:24:02;12.00;;;7.18;;
4577;SDS011;2301;47.354;8.528;2023-02-01T05:26:45;16.50;;;7.15;;
4577;SDS011;2301;47.354;8.528;2023-02-01T05:29:14;11.60;;;7.07;;
4577;SDS011;2301;47.354;8.528;2023-02-01T05:31:43;10.02;;;6.10;;
4577;SDS011;2301;47.354;8.528;2023-02-01T05:34:11;9.30;;;6.72;;
4577;SDS011;2301;47.354;8.528;2023-02-01T05:36:38;9.50;;;6.50;;
4577;SDS011;2301;47.354;8.528;2023-02-01T05:39:05;17.02;;;7.65;;
4577;SDS011;2301;47.354;8.528;2023-02-01T05:41:32;12.45;;;6.72;;
4577;SDS011;2301;47.354;8.528;2023-02-01T05:43:59;11.75;;;6.80;;
4577;SDS011;2301;47.354;8.528;2023-02-01T05:46:27;11.52;;;6.80;;
4577;SDS011;2301;47.354;8.528;2023-02-01T05:48:54;13.82;;;6.68;;
4577;SDS011;2301;47.354;8.528;2023-02-01T05:51:21;8.82;;;6.20;;
4577;SDS011;2301;47.354;8.528;2023-02-01T05:53:48;10.27;;;6.82;;
4577;SDS011;2301;47.354;8.528;2023-02-01T05:56:15;9.57;;;5.93;;
4577;SDS011;2301;47.354;8.528;2023-02-01T05:58:42;9.13;;;6.30;;
4577;SDS011;2301;47.354;8.528;2023-02-01T06:01:10;10.55;;;7.00;;
4577;SDS011;2301;47.354;8.528;2023-02-01T06:03:38;13.23;;;7.65;;
4577;SDS011;2301;47.354;8.528;2023-02-01T06:06:05;11.35;;;6.68;;
4577;SDS011;2301;47.354;8.528;2023-02-01T06:08:32;12.90;;;6.45;;
4577;SDS011;2301;47.354;8.528;2023-02-01T06:11:00;12.55;;;7.00;;
4577;SDS011;2301;47.354;8.528;2023-02-01T06:13:29;12.50;;;6.85;;
4577;SDS011;2301;47.354;8.528;2023-02-01T06:15:56;17.27;;;7.30;;
4577;SDS011;2301;47.354;8.528;2023-02-01T06:18:23;10.38;;;6.93;;
4577;SDS011;2301;47.354;8.528;2023-02-01T06:20:55;10.95;;;6.60;;
4577;SDS011;2301;47.354;8.528;2023-02-01T06:23:26;11.02;;;6.85;;
4577;SDS011;2301;47.354;8.528;2023-02-01T06:25:57;13.85;;;7.40;;
4577;SDS011;2301;47.354;8.528;2023-02-01T06:28:26;11.90;;;8.32;;
4577;SDS011;2301;47.354;8.528;2023-02-01T06:30:53;13.13;;;7.15;;
4577;SDS011;2301;47.354;8.528;2023-02-01T06:33:23;11.57;;;7.18;;
4577;SDS011;2301;47.354;8.528;2023-02-01T06:35:57;15.30;;;8.60;;
4577;SDS011;2301;47.354;8.528;2023-02-01T06:38:29;13.10;;;8.45;;
4577;SDS011;2301;47.354;8.528;2023-02-01T06:40:57;12.98;;;8.65;;
4577;SDS011;2301;47.354;8.528;2023-02-01T06:43:27;17.90;;;9.18;;
4577;SDS011;2301;47.354;8.528;2023-02-01T06:45:58;18.20;;;9.55;;
4577;SDS011;2301;47.354;8.528;2023-02-01T06:48:27;14.50;;;9.07;;
4577;SDS011;2301;47.354;8.528;2023-02-01T06:50:53;14.23;;;8.88;;
4577;SDS011;2301;47.354;8.528;2023-02-01T06:53:22;13.75;;;8.57;;
4577;SDS011;2301;47.354;8.528;2023-02-01T06:55:55;16.67;;;9.57;;
4577;SDS011;2301;47.354;8.528;2023-02-01T06:58:29;13.57;;;9.00;;
4577;SDS011;2301;47.354;8.528;2023-02-01T07:01:07;14.32;;;9.13;;
4577;SDS011;2301;47.354;8.528;2023-02-01T07:03:46;12.32;;;8.38;;
4577;SDS011;2301;47.354;8.528;2023-02-01T07:06:14;13.98;;;8.68;;
4577;SDS011;2301;47.354;8.528;2023-02-01T07:08:45;15.38;;;8.75;;
4577;SDS011;2301;47.354;8.528;2023-02-01T07:11:13;15.23;;;9.00;;
4577;SDS011;2301;47.354;8.528;2023-02-01T07:13:40;11.88;;;8.20;;
4577;SDS011;2301;47.354;8.528;2023-02-01T07:16:11;14.93;;;8.30;;
4577;SDS011;2301;47.354;8.528;2023-02-01T07:18:39;5.45;;;2.40;;
4577;SDS011;2301;47.354;8.528;2023-02-01T07:21:07;13.93;;;8.35;;
4577;SDS011;2301;47.354;8.528;2023-02-01T07:23:36;12.68;;;7.57;;
4577;SDS011;2301;47.354;8.528;2023-02-01T07:26:05;12.73;;;7.55;;
4577;SDS011;2301;47.354;8.528;2023-02-01T07:28:34;13.90;;;8.20;;
4577;SDS011;2301;47.354;8.528;2023-02-01T07:31:03;15.80;;;9.10;;
4577;SDS011;2301;47.354;8.528;2023-02-01T07:33:30;15.43;;;8.60;;
4577;SDS011;2301;47.354;8.528;2023-02-01T07:35:57;17.65;;;9.48;;
4577;SDS011;2301;47.354;8.528;2023-02-01T07:38:26;12.38;;;8.48;;
4577;SDS011;2301;47.354;8.528;2023-02-01T07:40:56;15.45;;;8.65;;
4577;SDS011;2301;47.354;8.528;2023-02-01T07:43:25;12.82;;;8.35;;
4577;SDS011;2301;47.354;8.528;2023-02-01T07:45:53;15.05;;;8.70;;
4577;SDS011;2301;47.354;8.528;2023-02-01T07:48:21;15.23;;;8.70;;
4577;SDS011;2301;47.354;8.528;2023-02-01T07:50:56;13.00;;;8.73;;
4577;SDS011;2301;47.354;8.528;2023-02-01T07:53:31;18.63;;;9.10;;
4577;SDS011;2301;47.354;8.528;2023-02-01T07:55:59;14.60;;;8.40;;
4577;SDS011;2301;47.354;8.528;2023-02-01T07:58:27;14.20;;;8.05;;
4577;SDS011;2301;47.354;8.528;2023-02-01T08:00:57;13.07;;;8.10;;
4577;SDS011;2301;47.354;8.528;2023-02-01T08:03:41;13.38;;;7.72;;
4577;SDS011;2301;47.354;8.528;2023-02-01T08:06:09;12.80;;;7.78;;
4577;SDS011;2301;47.354;8.528;2023-02-01T08:08:36;12.65;;;8.15;;
4577;SDS011;2301;47.354;8.528;2023-02-01T08:11:04;13.23;;;8.23;;
4577;SDS011;2301;47.354;8.528;2023-02-01T08:13:34;12.88;;;8.45;;
4577;SDS011;2301;47.354;8.528;2023-02-01T08:16:02;11.07;;;6.50;;
4577;SDS011;2301;47.354;8.528;2023-02-01T08:18:30;12.88;;;7.78;;
4577;SDS011;2301;47.354;8.528;2023-02-01T08:21:02;11.05;;;6.55;;
4577;SDS011;2301;47.354;8.528;2023-02-01T08:23:30;9.45;;;6.47;;
4577;SDS011;2301;47.354;8.528;2023-02-01T08:26:03;11.93;;;6.97;;
4577;SDS011;2301;47.354;8.528;2023-02-01T08:28:36;11.90;;;7.45;;
4577;SDS011;2301;47.354;8.528;2023-02-01T08:31:04;12.88;;;7.22;;
4577;SDS011;2301;47.354;8.528;2023-02-01T08:33:32;11.98;;;7.05;;
4577;SDS011;2301;47.354;8.528;2023-02-01T08:36:00;14.25;;;8.10;;
4577;SDS011;2301;47.354;8.528;2023-02-01T08:38:28;8.48;;;6.00;;
4577;SDS011;2301;47.354;8.528;2023-02-01T08:40:55;12.13;;;6.85;;
4577;SDS011;2301;47.354;8.528;2023-02-01T08:43:22;10.40;;;6.57;;
4577;SDS011;2301;47.354;8.528;2023-02-01T08:45:50;8.13;;;6.25;;
4577;SDS011;2301;47.354;8.528;2023-02-01T08:48:20;13.20;;;6.80;;
4577;SDS011;2301;47.354;8.528;2023-02-01T08:50:47;12.07;;;6.63;;
4577;SDS011;2301;47.354;8.528;2023-02-01T08:53:14;8.80;;;5.65;;
4577;SDS011;2301;47.354;8.528;2023-02-01T08:55:41;8.30;;;5.85;;
4577;SDS011;2301;47.354;8.528;2023-02-01T08:58:08;14.15;;;6.38;;
4577;SDS011;2301;47.354;8.528;2023-02-01T09:00:36;8.20;;;5.50;;
4577;SDS011;2301;47.354;8.528;2023-02-01T09:03:04;8.80;;;6.00;;
4577;SDS011;2301;47.354;8.528;2023-02-01T09:05:31;10.38;;;6.25;;
4577;SDS011;2301;47.354;8.528;2023-02-01T09:07:58;11.20;;;5.50;;
4577;SDS011;2301;47.354;8.528;2023-02-01T09:10:25;7.35;;;5.00;;
4577;SDS011;2301;47.354;8.528;2023-02-01T09:12:52;8.75;;;4.90;;
4577;SDS011;2301;47.354;8.528;2023-02-01T09:15:19;10.75;;;5.15;;
4577;SDS011;2301;47.354;8.528;2023-02-01T09:17:46;7.72;;;5.10;;
4577;SDS011;2301;47.354;8.528;2023-02-01T09:20:15;8.90;;;5.45;;
4577;SDS011;2301;47.354;8.528;2023-02-01T09:22:43;7.88;;;5.40;;
4577;SDS011;2301;47.354;8.528;2023-02-01T09:25:10;8.57;;;5.40;;
4577;SDS011;2301;47.354;8.528;2023-02-01T09:27:37;8.25;;;5.35;;
4577;SDS011;2301;47.354;8.528;2023-02-01T09:30:05;12.98;;;5.60;;
4577;SDS011;2301;47.354;8.528;2023-02-01T09:32:32;10.68;;;5.00;;
4577;SDS011;2301;47.354;8.528;2023-02-01T09:34:59;7.35;;;5.05;;
4577;SDS011;2301;47.354;8.528;2023-02-01T09:37:28;6.80;;;5.00;;
4577;SDS011;2301;47.354;8.528;2023-02-01T09:39:55;6.00;;;4.25;;
4577;SDS011;2301;47.354;8.528;2023-02-01T09:42:26;7.82;;;4.68;;
4577;SDS011;2301;47.354;8.528;2023-02-01T09:45:15;11.75;;;4.60;;
4577;SDS011;2301;47.354;8.528;2023-02-01T09:47:49;6.35;;;4.57;;
4577;SDS011;2301;47.354;8.528;2023-02-01T09:50:21;7.15;;;4.72;;
4577;SDS011;2301;47.354;8.528;2023-02-01T09:52:54;7.40;;;4.40;;
4577;SDS011;2301;47.354;8.528;2023-02-01T09:55:26;7.15;;;3.85;;
4577;SDS011;2301;47.354;8.528;2023-02-01T09:58:02;9.23;;;3.97;;
4577;SDS011;2301;47.354;8.528;2023-02-01T10:00:34;6.10;;;3.80;;
4577;SDS011;2301;47.354;8.528;2023-02-01T10:03:02;6.28;;;4.05;;
4577;SDS011;2301;47.354;8.528;2023-02-01T10:08:40;6.15;;;3.53;;
4577;SDS011;2301;47.354;8.528;2023-02-01T10:11:35;7.28;;;3.60;;
4577;SDS011;2301;47.354;8.528;2023-02-01T10:14:19;5.50;;;3.63;;
4577;SDS011;2301;47.354;8.528;2023-02-01T10:17:02;4.60;;;3.63;;
4577;SDS011;2301;47.354;8.528;2023-02-01T10:19:39;4.60;;;3.40;;
4577;SDS011;2301;47.354;8.528;2023-02-01T10:22:17;4.85;;;3.10;;
4577;SDS011;2301;47.354;8.528;2023-02-01T10:25:02;8.40;;;3.65;;
4577;SDS011;2301;47.354;8.528;2023-02-01T10:27:38;12.23;;;3.92;;
4577;SDS011;2301;47.354;8.528;2023-02-01T10:30:12;4.40;;;3.25;;
4577;SDS011;2301;47.354;8.528;2023-02-01T10:32:44;4.55;;;3.63;;
4577;SDS011;2301;47.354;8.528;2023-02-01T10:35:13;6.55;;;3.67;;
4577;SDS011;2301;47.354;8.528;2023-02-01T10:37:42;7.60;;;3.50;;
4577;SDS011;2301;47.354;8.528;2023-02-01T10:40:22;4.05;;;2.80;;
4577;SDS011;2301;47.354;8.528;2023-02-01T10:42:51;4.65;;;3.40;;
4577;SDS011;2301;47.354;8.528;2023-02-01T10:45:20;6.20;;;3.42;;
4577;SDS011;2301;47.354;8.528;2023-02-01T10:47:49;4.60;;;3.58;;
4577;SDS011;2301;47.354;8.528;2023-02-01T10:50:30;3.60;;;3.20;;
4577;SDS011;2301;47.354;8.528;2023-02-01T10:53:05;6.90;;;3.85;;
4577;SDS011;2301;47.354;8.528;2023-02-01T10:55:40;3.88;;;3.22;;
4577;SDS011;2301;47.354;8.528;2023-02-01T10:58:14;6.65;;;3.20;;
4577;SDS011;2301;47.354;8.528;2023-02-01T11:00:43;5.50;;;3.53;;
4577;SDS011;2301;47.354;8.528;2023-02-01T11:03:22;5.85;;;3.55;;
4577;SDS011;2301;47.354;8.528;2023-02-01T11:06:03;5.38;;;3.10;;
4577;SDS011;2301;47.354;8.528;2023-02-01T11:08:41;6.88;;;3.40;;
4577;SDS011;2301;47.354;8.528;2023-02-01T11:11:12;4.35;;;2.67;;
4577;SDS011;2301;47.354;8.528;2023-02-01T11:13:40;5.20;;;2.95;;
4577;SDS011;2301;47.354;8.528;2023-02-01T11:16:11;12.07;;;2.80;;
4577;SDS011;2301;47.354;8.528;2023-02-01T11:18:40;7.38;;;2.95;;
4577;SDS011;2301;47.354;8.528;2023-02-01T11:21:08;4.10;;;2.95;;
4577;SDS011;2301;47.354;8.528;2023-02-01T11:23:39;3.08;;;2.58;;
4577;SDS011;2301;47.354;8.528;2023-02-01T11:26:10;5.18;;;2.75;;
4577;SDS011;2301;47.354;8.528;2023-02-01T11:28:42;6.78;;;3.20;;
4577;SDS011;2301;47.354;8.528;2023-02-01T11:31:19;4.20;;;2.42;;
4577;SDS011;2301;47.354;8.528;2023-02-01T11:33:49;3.55;;;2.85;;
4577;SDS011;2301;47.354;8.528;2023-02-01T11:36:20;5.75;;;3.00;;
4577;SDS011;2301;47.354;8.528;2023-02-01T11:38:52;3.28;;;2.47;;
4577;SDS011;2301;47.354;8.528;2023-02-01T11:41:22;3.92;;;2.72;;
4577;SDS011;2301;47.354;8.528;2023-02-01T11:43:52;5.70;;;3.15;;
4577;SDS011;2301;47.354;8.528;2023-02-01T11:46:22;5.15;;;3.00;;
4577;SDS011;2301;47.354;8.528;2023-02-01T11:48:55;5.18;;;3.50;;
4577;SDS011;2301;47.354;8.528;2023-02-01T11:51:36;4.28;;;3.40;;
4577;SDS011;2301;47.354;8.528;2023-02-01T11:54:16;4.78;;;3.20;;
4577;SDS011;2301;47.354;8.528;2023-02-01T11:56:58;5.45;;;2.90;;
4577;SDS011;2301;47.354;8.528;2023-02-01T11:59:35;4.10;;;2.83;;
4577;SDS011;2301;47.354;8.528;2023-02-01T12:05:22;4.60;;;3.00;;
4577;SDS011;2301;47.354;8.528;2023-02-01T12:08:05;5.47;;;2.75;;
4577;SDS011;2301;47.354;8.528;2023-02-01T12:10:54;7.13;;;3.15;;
4577;SDS011;2301;47.354;8.528;2023-02-01T12:13:37;3.00;;;2.70;;
4577;SDS011;2301;47.354;8.528;2023-02-01T12:16:17;4.97;;;3.10;;
4577;SDS011;2301;47.354;8.528;2023-02-01T12:18:56;8.27;;;3.33;;
4577;SDS011;2301;47.354;8.528;2023-02-01T12:21:55;5.18;;;2.88;;
4577;SDS011;2301;47.354;8.528;2023-02-01T12:24:33;5.13;;;3.20;;
4577;SDS011;2301;47.354;8.528;2023-02-01T12:27:24;5.00;;;3.03;;
4577;SDS011;2301;47.354;8.528;2023-02-01T12:33:11;6.00;;;3.58;;
4577;SDS011;2301;47.354;8.528;2023-02-01T12:35:59;4.45;;;3.30;;
4577;SDS011;2301;47.354;8.528;2023-02-01T12:38:42;3.95;;;2.83;;
4577;SDS011;2301;47.354;8.528;2023-02-01T12:44:11;7.47;;;3.42;;
4577;SDS011;2301;47.354;8.528;2023-02-01T12:46:45;7.20;;;3.40;;
4577;SDS011;2301;47.354;8.528;2023-02-01T12:49:18;7.38;;;3.72;;
4577;SDS011;2301;47.354;8.528;2023-02-01T12:51:51;10.27;;;3.85;;
4577;SDS011;2301;47.354;8.528;2023-02-01T12:54:26;5.88;;;3.65;;
4577;SDS011;2301;47.354;8.528;2023-02-01T12:56:59;10.00;;;3.47;;
4577;SDS011;2301;47.354;8.528;2023-02-01T12:59:30;5.80;;;3.05;;
4577;SDS011;2301;47.354;8.528;2023-02-01T13:02:08;4.25;;;3.05;;
4577;SDS011;2301;47.354;8.528;2023-02-01T13:04:49;3.65;;;2.78;;
4577;SDS011;2301;47.354;8.528;2023-02-01T13:07:24;6.22;;;2.85;;
4577;SDS011;2301;47.354;8.528;2023-02-01T13:09:55;8.05;;;3.83;;
4577;SDS011;2301;47.354;8.528;2023-02-01T13:12:28;8.00;;;3.13;;
4577;SDS011;2301;47.354;8.528;2023-02-01T13:15:00;5.68;;;3.10;;
4577;SDS011;2301;47.354;8.528;2023-02-01T13:17:32;5.65;;;3.10;;
4577;SDS011;2301;47.354;8.528;2023-02-01T13:20:03;9.60;;;2.55;;
4577;SDS011;2301;47.354;8.528;2023-02-01T13:22:37;4.90;;;2.72;;
4577;SDS011;2301;47.354;8.528;2023-02-01T13:25:11;3.45;;;2.10;;
4577;SDS011;2301;47.354;8.528;2023-02-01T13:27:39;3.38;;;2.45;;
4577;SDS011;2301;47.354;8.528;2023-02-01T13:30:10;4.45;;;2.17;;
4577;SDS011;2301;47.354;8.528;2023-02-01T13:35:57;3.92;;;2.45;;
4577;SDS011;2301;47.354;8.528;2023-02-01T13:41:55;4.45;;;2.25;;
4577;SDS011;2301;47.354;8.528;2023-02-01T13:44:27;5.13;;;2.38;;
4577;SDS011;2301;47.354;8.528;2023-02-01T13:47:00;2.50;;;2.10;;
4577;SDS011;2301;47.354;8.528;2023-02-01T13:49:31;4.60;;;2.45;;
4577;SDS011;2301;47.354;8.528;2023-02-01T13:52:05;3.88;;;2.00;;
4577;SDS011;2301;47.354;8.528;2023-02-01T13:54:33;3.38;;;1.88;;
4577;SDS011;2301;47.354;8.528;2023-02-01T13:57:03;3.45;;;2.22;;
4577;SDS011;2301;47.354;8.528;2023-02-01T13:59:49;2.08;;;1.60;;
4577;SDS011;2301;47.354;8.528;2023-02-01T14:02:36;3.35;;;1.70;;
4577;SDS011;2301;47.354;8.528;2023-02-01T14:05:54;4.18;;;2.22;;
4577;SDS011;2301;47.354;8.528;2023-02-01T14:08:46;2.60;;;1.60;;
4577;SDS011;2301;47.354;8.528;2023-02-01T14:11:35;2.28;;;1.50;;
4577;SDS011;2301;47.354;8.528;2023-02-01T14:23:15;3.30;;;1.23;;
4577;SDS011;2301;47.354;8.528;2023-02-01T14:26:08;6.85;;;1.70;;
4577;SDS011;2301;47.354;8.528;2023-02-01T14:31:44;9.77;;;1.92;;
4577;SDS011;2301;47.354;8.528;2023-02-01T14:34:27;5.78;;;2.30;;
4577;SDS011;2301;47.354;8.528;2023-02-01T14:37:23;7.65;;;2.05;;
4577;SDS011;2301;47.354;8.528;2023-02-01T14:39:54;2.15;;;1.65;;
4577;SDS011;2301;47.354;8.528;2023-02-01T14:42:28;3.40;;;1.80;;
4577;SDS011;2301;47.354;8.528;2023-02-01T14:51:08;5.35;;;2.28;;
4577;SDS011;2301;47.354;8.528;2023-02-01T14:53:40;7.57;;;2.10;;
4577;SDS011;2301;47.354;8.528;2023-02-01T14:56:11;6.50;;;1.80;;
4577;SDS011;2301;47.354;8.528;2023-02-01T14:58:43;12.27;;;2.60;;
4577;SDS011;2301;47.354;8.528;2023-02-01T15:01:16;2.60;;;1.60;;
4577;SDS011;2301;47.354;8.528;2023-02-01T15:04:00;4.35;;;1.55;;
4577;SDS011;2301;47.354;8.528;2023-02-01T15:06:31;6.13;;;2.10;;
4577;SDS011;2301;47.354;8.528;2023-02-01T15:09:03;6.13;;;2.20;;
4577;SDS011;2301;47.354;8.528;2023-02-01T15:14:24;7.10;;;2.17;;
4577;SDS011;2301;47.354;8.528;2023-02-01T15:16:51;10.15;;;2.20;;
4577;SDS011;2301;47.354;8.528;2023-02-01T15:19:20;11.25;;;2.50;;
4577;SDS011;2301;47.354;8.528;2023-02-01T15:21:49;5.97;;;1.70;;
4577;SDS011;2301;47.354;8.528;2023-02-01T15:24:19;6.63;;;2.08;;
4577;SDS011;2301;47.354;8.528;2023-02-01T15:26:48;4.70;;;2.00;;
4577;SDS011;2301;47.354;8.528;2023-02-01T15:29:16;5.20;;;2.35;;
4577;SDS011;2301;47.354;8.528;2023-02-01T15:31:46;9.15;;;2.30;;
4577;SDS011;2301;47.354;8.528;2023-02-01T15:34:14;8.80;;;1.90;;
4577;SDS011;2301;47.354;8.528;2023-02-01T15:36:41;4.70;;;1.88;;
4577;SDS011;2301;47.354;8.528;2023-02-01T15:39:14;7.55;;;2.25;;
4577;SDS011;2301;47.354;8.528;2023-02-01T15:41:46;7.32;;;1.90;;
4577;SDS011;2301;47.354;8.528;2023-02-01T15:44:17;12.52;;;2.72;;
4577;SDS011;2301;47.354;8.528;2023-02-01T15:46:48;8.82;;;2.65;;
4577;SDS011;2301;47.354;8.528;2023-02-01T15:49:20;9.52;;;2.20;;
4577;SDS011;2301;47.354;8.528;2023-02-01T15:51:52;5.60;;;2.30;;
4577;SDS011;2301;47.354;8.528;2023-02-01T15:54:22;6.82;;;1.90;;
4577;SDS011;2301;47.354;8.528;2023-02-01T15:56:53;4.53;;;1.95;;
4577;SDS011;2301;47.354;8.528;2023-02-01T15:59:22;4.13;;;1.50;;
4577;SDS011;2301;47.354;8.528;2023-02-01T16:01:53;10.02;;;2.70;;
4577;SDS011;2301;47.354;8.528;2023-02-01T16:04:20;6.68;;;2.05;;
4577;SDS011;2301;47.354;8.528;2023-02-01T16:06:49;7.82;;;2.13;;
4577;SDS011;2301;47.354;8.528;2023-02-01T16:09:19;7.07;;;2.67;;
4577;SDS011;2301;47.354;8.528;2023-02-01T16:11:49;5.50;;;2.58;;
4577;SDS011;2301;47.354;8.528;2023-02-01T16:14:21;5.65;;;2.25;;
4577;SDS011;2301;47.354;8.528;2023-02-01T16:16:48;11.70;;;2.80;;
4577;SDS011;2301;47.354;8.528;2023-02-01T16:19:17;7.35;;;2.63;;
4577;SDS011;2301;47.354;8.528;2023-02-01T16:21:44;7.93;;;2.20;;
4577;SDS011;2301;47.354;8.528;2023-02-01T16:24:11;10.95;;;2.40;;
4577;SDS011;2301;47.354;8.528;2023-02-01T16:26:39;7.25;;;2.42;;
4577;SDS011;2301;47.354;8.528;2023-02-01T16:29:06;16.45;;;2.83;;